Radium, Minnesota
Current Conditions -  °F | °C
As of 4:15 AM on Saturday 20 Dec 2014 (Local Time) from KTVF Reporting Station
Overcast Overcast  
Wind Chill: 19°   Ceiling: 400
Heat Index: 28°   Visibility: 3mi
Dew Point: 28°   Wind: 10mph
Humidity: 100%   Direction: 200°SSW
Pressure: 30"   Gusts: NA
Location:  48.2512°N, 96.7287°W
Report Text: KTVF 201015Z AUTO 20009KT 3SM OVC004 M02/M02 A3000 RMK AO1
Loading
Personal Weather Stations






























Interactive Weather Map New forecast layout! Learn more

10-Day Weather Forecast

Advertisements
Track Severe Weather on mobile